KBKT/BKT METAR and TAF weather

Enter ICAO airport designator
Station Type Date Time Source
KBKT METAR 2020/08/05 15:58 UTC NOAA

KBKT 051558Z AUTO 30005KT 10SM CLR 30/21 A3008 RMK AO2 SLP185 T02970211


Station Type Date Time Source
KBKT Decoded METAR 2020/08/05 15:58 UTC NOAA

Ft. Pickett / Blackstone, VA, United States (KBKT) 37-05N 077-57W
Aug 05, 2020 - 11:58 AM EDT / 2020.08.05 1558 UTC
Wind: from the WNW (300 degrees) at 6 MPH (5 KT):0
Visibility: 10 mile(s):0
Sky conditions: clear
Temperature: 85.5 F (29.7 C)
Dew Point: 70.0 F (21.1 C)
Relative Humidity: 59%
Pressure (altimeter): 30.08 in. Hg (1018 hPa)
ob: KBKT 051558Z AUTO 30005KT 10SM CLR 30/21 A3008 RMK AO2 SLP185 T02970211
cycle: 16

Station Type Date Time Source
KBKT TAF UTC NOAA

Error!

Example: see airport list